createdAt,value
2018-07-31T00:00:08.344Z,5.20
2018-07-31T00:02:37.920Z,5.70
2018-07-31T00:05:06.888Z,6.80
2018-07-31T00:07:35.340Z,6.40
2018-07-31T00:10:03.759Z,5.60
2018-07-31T00:12:32.453Z,5.40
2018-07-31T00:15:01.364Z,5.43
2018-07-31T00:17:31.371Z,6.03
2018-07-31T00:19:59.803Z,5.47
2018-07-31T00:22:28.212Z,5.83
2018-07-31T00:24:56.672Z,5.50
2018-07-31T00:27:24.752Z,4.97
2018-07-31T00:29:53.192Z,5.70
2018-07-31T00:32:21.692Z,5.43
2018-07-31T00:34:50.187Z,5.30
2018-07-31T00:37:18.631Z,6.17
2018-07-31T00:39:46.971Z,5.37
2018-07-31T00:42:15.395Z,5.57
2018-07-31T00:44:43.517Z,5.60
2018-07-31T00:47:12.084Z,6.30
2018-07-31T00:49:40.580Z,6.00
2018-07-31T00:52:08.662Z,5.93
2018-07-31T00:54:36.748Z,5.97
2018-07-31T00:57:04.896Z,6.77
2018-07-31T00:59:33.680Z,6.07
2018-07-31T01:02:02.097Z,5.60
2018-07-31T01:04:30.764Z,6.27
2018-07-31T01:06:59.421Z,6.53
2018-07-31T01:09:28.124Z,6.30
2018-07-31T01:11:56.963Z,6.03
2018-07-31T01:14:25.443Z,5.63
2018-07-31T01:16:53.722Z,5.57
2018-07-31T01:19:22.151Z,6.13
2018-07-31T01:21:50.614Z,6.00
2018-07-31T01:24:19.271Z,5.63
2018-07-31T01:26:47.963Z,5.30
2018-07-31T01:29:16.399Z,5.50
2018-07-31T01:31:45.034Z,6.83
2018-07-31T01:34:13.349Z,6.40
2018-07-31T01:36:41.400Z,7.10
2018-07-31T01:39:11.459Z,6.60
2018-07-31T01:41:40.251Z,6.40
2018-07-31T01:44:08.551Z,7.10
2018-07-31T01:46:37.276Z,7.10
2018-07-31T01:49:05.376Z,6.13
2018-07-31T01:51:33.515Z,6.63
2018-07-31T01:54:01.940Z,6.40
2018-07-31T01:56:30.391Z,6.87
2018-07-31T01:58:58.833Z,5.80
2018-07-31T02:01:26.903Z,6.50
2018-07-31T02:03:54.996Z,6.00
2018-07-31T02:06:26.245Z,6.60
2018-07-31T02:08:55.232Z,6.57
2018-07-31T02:11:23.304Z,6.93
2018-07-31T02:13:52.119Z,7.40
2018-07-31T02:16:20.204Z,6.90
2018-07-31T02:18:48.300Z,6.63
2018-07-31T02:21:16.728Z,6.57
2018-07-31T02:23:44.843Z,6.60
2018-07-31T02:26:13.299Z,6.70
2018-07-31T02:28:44.897Z,5.90
2018-07-31T02:31:13.451Z,6.90
2018-07-31T02:33:42.068Z,7.10
2018-07-31T02:36:11.000Z,6.13
2018-07-31T02:38:39.076Z,7.10
2018-07-31T02:41:07.552Z,7.27
2018-07-31T02:43:36.215Z,8.60
2018-07-31T02:46:04.521Z,10.30
2018-07-31T02:48:32.805Z,8.37
2018-07-31T02:51:01.232Z,7.80
2018-07-31T02:53:29.716Z,8.80
2018-07-31T02:55:58.144Z,8.70
2018-07-31T02:58:26.556Z,7.00
2018-07-31T03:00:54.736Z,8.47
2018-07-31T03:03:22.844Z,8.33
2018-07-31T03:05:51.268Z,8.33
2018-07-31T03:08:19.732Z,8.70
2018-07-31T03:10:48.028Z,9.53
2018-07-31T03:13:16.152Z,9.00
2018-07-31T03:15:44.632Z,9.23
2018-07-31T03:18:12.733Z,8.10
2018-07-31T03:20:41.177Z,8.53
2018-07-31T03:23:09.436Z,8.70
2018-07-31T03:25:37.920Z,8.83
2018-07-31T03:28:06.284Z,8.80
2018-07-31T03:30:34.904Z,7.63
2018-07-31T03:33:02.976Z,8.77
2018-07-31T03:35:31.407Z,9.13
2018-07-31T03:37:59.845Z,7.47
2018-07-31T03:40:28.461Z,7.70
2018-07-31T03:42:56.904Z,8.63
2018-07-31T03:45:25.407Z,8.30
2018-07-31T03:47:53.567Z,8.20
2018-07-31T03:50:22.237Z,9.03
2018-07-31T03:52:50.671Z,9.37
2018-07-31T03:55:19.303Z,10.17
2018-07-31T03:57:48.316Z,9.70
2018-07-31T04:00:23.536Z,9.53
2018-07-31T04:02:52.096Z,8.93
2018-07-31T04:05:20.547Z,9.80
2018-07-31T04:07:48.898Z,10.33
2018-07-31T04:10:17.349Z,9.73
2018-07-31T04:12:45.815Z,10.30
2018-07-31T04:15:14.520Z,8.90
2018-07-31T04:17:46.952Z,8.70
2018-07-31T04:20:15.460Z,9.40
2018-07-31T04:22:43.880Z,9.57
2018-07-31T04:25:12.060Z,9.33
2018-07-31T04:27:40.345Z,10.07
2018-07-31T04:30:08.711Z,10.30
2018-07-31T04:32:37.212Z,10.07
2018-07-31T04:35:05.465Z,10.93
2018-07-31T04:37:34.132Z,11.63
2018-07-31T04:40:03.584Z,10.90
2018-07-31T04:42:32.021Z,9.33
2018-07-31T04:45:00.682Z,11.10
2018-07-31T04:47:29.466Z,11.10
2018-07-31T04:49:57.924Z,11.63
2018-07-31T04:52:26.361Z,12.00
2018-07-31T04:54:54.460Z,12.63
2018-07-31T04:57:23.134Z,12.57
2018-07-31T04:59:51.757Z,12.37
2018-07-31T05:02:20.447Z,12.87
2018-07-31T05:04:48.880Z,12.60
2018-07-31T05:07:17.459Z,13.70
2018-07-31T05:09:45.887Z,13.30
2018-07-31T05:12:14.880Z,12.67
2018-07-31T05:14:43.588Z,13.87
2018-07-31T05:17:12.228Z,13.17
2018-07-31T05:19:40.655Z,14.90
2018-07-31T05:22:08.952Z,11.60
2018-07-31T05:24:37.041Z,14.73
2018-07-31T05:27:05.752Z,15.10
2018-07-31T05:29:34.176Z,16.30
2018-07-31T05:32:02.775Z,14.97
2018-07-31T05:34:31.456Z,15.97
2018-07-31T05:37:00.692Z,17.13
2018-07-31T05:39:29.140Z,13.97
2018-07-31T05:41:57.785Z,13.03
2018-07-31T05:44:26.211Z,15.87
2018-07-31T05:46:54.708Z,17.67
2018-07-31T05:49:22.789Z,16.17
2018-07-31T05:51:51.285Z,16.87
2018-07-31T05:54:19.856Z,16.27
2018-07-31T05:56:48.292Z,17.97
2018-07-31T05:59:16.388Z,17.10
2018-07-31T06:01:45.069Z,17.97
2018-07-31T06:04:13.496Z,18.87
2018-07-31T06:06:43.284Z,17.87
2018-07-31T06:09:11.389Z,18.50
2018-07-31T06:11:41.627Z,17.70
2018-07-31T06:14:10.060Z,19.60
2018-07-31T06:16:38.743Z,19.20
2018-07-31T06:19:07.029Z,15.67
2018-07-31T06:21:35.132Z,18.20
2018-07-31T06:24:03.524Z,16.47
2018-07-31T06:26:32.280Z,18.00
2018-07-31T06:29:00.768Z,18.90
2018-07-31T06:31:28.895Z,18.13
2018-07-31T06:33:57.608Z,18.73
2018-07-31T06:36:26.052Z,13.83
2018-07-31T06:38:54.732Z,18.80
2018-07-31T06:41:22.850Z,15.53
2018-07-31T06:43:50.956Z,17.27
2018-07-31T06:46:19.315Z,17.50
2018-07-31T06:48:47.693Z,15.90
2018-07-31T06:51:16.208Z,14.53
2018-07-31T06:53:45.059Z,16.70
2018-07-31T06:56:13.692Z,14.50
2018-07-31T06:58:43.273Z,15.67
2018-07-31T07:01:11.675Z,16.73
2018-07-31T07:03:40.416Z,18.30
2018-07-31T07:06:09.144Z,17.40
2018-07-31T07:08:37.489Z,17.93
2018-07-31T07:11:05.589Z,17.57
2018-07-31T07:13:34.233Z,15.30
2018-07-31T07:16:02.652Z,18.47
2018-07-31T07:18:30.977Z,16.90
2018-07-31T07:20:59.403Z,17.03
2018-07-31T07:23:27.860Z,17.97
2018-07-31T07:25:56.560Z,16.67
2018-07-31T07:28:25.005Z,17.53
2018-07-31T07:30:53.430Z,14.30
2018-07-31T07:33:21.740Z,16.70
2018-07-31T07:35:50.072Z,17.50
2018-07-31T07:38:18.516Z,15.97
2018-07-31T07:40:46.935Z,17.97
2018-07-31T07:43:15.388Z,13.40
2018-07-31T07:45:43.820Z,16.23
2018-07-31T07:48:12.382Z,16.00
2018-07-31T07:50:40.900Z,16.63
2018-07-31T07:53:09.332Z,17.10
2018-07-31T07:55:37.904Z,16.13
2018-07-31T07:58:06.412Z,16.17
2018-07-31T08:00:34.889Z,12.63
2018-07-31T08:03:03.306Z,15.00
2018-07-31T08:05:31.732Z,13.73
2018-07-31T08:08:00.248Z,15.20
2018-07-31T08:10:28.693Z,16.03
2018-07-31T08:12:57.004Z,15.73
2018-07-31T08:15:25.372Z,15.93
2018-07-31T08:17:53.487Z,16.20
2018-07-31T08:20:27.764Z,15.63
2018-07-31T08:22:56.067Z,13.33
2018-07-31T08:25:24.351Z,13.13
2018-07-31T08:27:52.566Z,15.63
2018-07-31T08:30:21.011Z,14.57
2018-07-31T08:32:49.456Z,16.40
2018-07-31T08:35:17.639Z,13.77
2018-07-31T08:37:46.072Z,16.53
2018-07-31T08:40:14.501Z,13.70
2018-07-31T08:42:43.135Z,13.63
2018-07-31T08:45:11.265Z,10.90
2018-07-31T08:47:39.800Z,15.13
2018-07-31T08:50:08.235Z,13.10
2018-07-31T08:52:36.901Z,14.63
2018-07-31T08:55:05.001Z,15.17
2018-07-31T08:57:33.331Z,13.57
2018-07-31T09:00:02.008Z,13.50
2018-07-31T09:02:30.536Z,12.43
2018-07-31T09:04:59.316Z,13.63
2018-07-31T09:07:27.924Z,13.90
2018-07-31T09:09:56.655Z,12.83
2018-07-31T09:12:25.096Z,13.73
2018-07-31T09:14:53.232Z,11.90
2018-07-31T09:17:21.364Z,9.80
2018-07-31T09:19:49.804Z,9.50
2018-07-31T09:22:18.250Z,10.00
2018-07-31T09:24:46.576Z,9.80
2018-07-31T09:27:15.376Z,9.00
2018-07-31T09:29:43.828Z,9.90
2018-07-31T09:32:11.948Z,9.73
2018-07-31T09:34:46.389Z,9.00
2018-07-31T09:37:15.296Z,8.13
2018-07-31T09:39:43.635Z,8.47
2018-07-31T09:42:12.068Z,8.33
2018-07-31T09:44:40.497Z,8.03
2018-07-31T09:47:08.940Z,6.30
2018-07-31T09:49:37.068Z,6.20
2018-07-31T09:52:05.972Z,5.50
2018-07-31T09:54:34.099Z,6.83
2018-07-31T09:57:02.544Z,6.23
2018-07-31T09:59:31.160Z,5.07
2018-07-31T10:01:59.772Z,6.90
2018-07-31T10:04:29.307Z,5.77
2018-07-31T10:06:58.003Z,5.10
2018-07-31T10:09:26.096Z,4.70
2018-07-31T10:11:54.292Z,5.73
2018-07-31T10:14:22.849Z,4.33
2018-07-31T10:16:51.108Z,5.30
2018-07-31T10:19:19.527Z,5.23
2018-07-31T10:21:48.399Z,5.40
2018-07-31T10:24:16.525Z,5.00
2018-07-31T10:26:45.161Z,5.10
2018-07-31T10:29:14.036Z,4.73
2018-07-31T10:31:42.460Z,4.70
2018-07-31T10:34:18.911Z,5.27
2018-07-31T10:36:47.675Z,4.63
2018-07-31T10:39:16.103Z,4.90
2018-07-31T10:41:44.572Z,5.10
2018-07-31T10:44:12.995Z,6.87
2018-07-31T10:46:41.280Z,5.60
2018-07-31T10:49:09.408Z,5.40
2018-07-31T10:51:38.071Z,5.50
2018-07-31T10:54:06.210Z,5.50
2018-07-31T10:56:34.528Z,5.17
2018-07-31T10:59:03.196Z,5.43
2018-07-31T11:01:31.661Z,5.40
2018-07-31T11:03:59.865Z,5.03
2018-07-31T11:06:28.046Z,5.07
2018-07-31T11:08:56.346Z,5.10
2018-07-31T11:11:25.187Z,5.90
2018-07-31T11:13:53.339Z,5.70
2018-07-31T11:16:21.432Z,4.83
2018-07-31T11:18:50.108Z,5.13
2018-07-31T11:21:18.828Z,5.33
2018-07-31T11:23:47.639Z,4.60
2018-07-31T11:26:16.411Z,4.57
2018-07-31T11:28:44.510Z,4.50
2018-07-31T11:31:12.816Z,4.70
2018-07-31T11:33:41.500Z,4.60
2018-07-31T11:36:10.202Z,4.00
2018-07-31T11:38:38.456Z,4.90
2018-07-31T11:41:06.901Z,4.40
2018-07-31T11:43:35.324Z,4.60
2018-07-31T11:46:03.432Z,4.73
2018-07-31T11:48:31.589Z,4.10
2018-07-31T11:50:59.657Z,3.70
2018-07-31T11:53:28.116Z,4.70
2018-07-31T11:55:56.792Z,3.97
2018-07-31T11:58:24.880Z,4.30
2018-07-31T12:00:52.973Z,4.90
2018-07-31T12:03:21.059Z,4.03
2018-07-31T12:05:49.828Z,4.30
2018-07-31T12:08:17.923Z,4.00
2018-07-31T12:10:46.080Z,4.23
2018-07-31T12:13:14.167Z,4.63
2018-07-31T12:15:42.810Z,4.50
2018-07-31T12:18:11.464Z,4.40
2018-07-31T12:23:35.018Z,4.07
2018-07-31T12:26:03.140Z,3.90
2018-07-31T12:28:31.494Z,3.93
2018-07-31T12:31:00.430Z,3.33
2018-07-31T12:33:28.875Z,3.17
2018-07-31T12:35:57.529Z,2.53
2018-07-31T12:38:27.591Z,2.80
2018-07-31T12:40:56.221Z,2.20
2018-07-31T12:43:24.337Z,2.73
2018-07-31T12:45:52.755Z,3.03
2018-07-31T12:48:21.174Z,2.90
2018-07-31T12:50:49.646Z,2.97
2018-07-31T12:53:18.085Z,2.70
2018-07-31T12:55:46.777Z,2.97
2018-07-31T12:58:15.449Z,2.70
2018-07-31T13:00:43.809Z,2.40
2018-07-31T13:03:12.075Z,2.80
2018-07-31T13:05:40.419Z,3.00
2018-07-31T13:08:08.558Z,2.50
2018-07-31T13:10:36.837Z,2.63
2018-07-31T13:13:05.273Z,2.40
2018-07-31T13:15:33.884Z,2.50
2018-07-31T13:18:02.225Z,2.20
2018-07-31T13:20:30.688Z,2.50
2018-07-31T13:22:59.175Z,2.37
2018-07-31T13:25:27.489Z,2.30
2018-07-31T13:27:55.591Z,2.40
2018-07-31T13:30:24.276Z,2.60
2018-07-31T13:32:52.399Z,1.83
2018-07-31T13:35:20.777Z,2.27
2018-07-31T13:37:48.980Z,2.10
2018-07-31T13:40:17.713Z,2.37
2018-07-31T13:42:46.188Z,2.10
2018-07-31T13:45:14.895Z,2.40
2018-07-31T13:47:43.401Z,2.27
2018-07-31T13:50:11.834Z,2.60
2018-07-31T13:52:40.521Z,2.13
2018-07-31T13:55:09.283Z,2.43
2018-07-31T13:57:37.761Z,2.50
2018-07-31T14:00:05.982Z,2.40
2018-07-31T14:02:34.476Z,1.93
2018-07-31T14:05:02.714Z,2.20
2018-07-31T14:07:39.153Z,2.57
2018-07-31T14:10:07.649Z,2.20
2018-07-31T14:12:35.764Z,2.20
2018-07-31T14:15:04.837Z,2.27
2018-07-31T14:17:33.645Z,2.35
2018-07-31T14:20:02.094Z,2.20
2018-07-31T14:22:30.382Z,2.20
2018-07-31T14:24:59.117Z,2.03
2018-07-31T14:27:27.833Z,2.60
2018-07-31T14:29:56.275Z,2.30
2018-07-31T14:32:24.711Z,2.43
2018-07-31T14:34:53.321Z,2.57
2018-07-31T14:37:21.793Z,2.23
2018-07-31T14:39:50.318Z,2.70
2018-07-31T14:42:18.770Z,2.53
2018-07-31T14:44:46.869Z,2.63
2018-07-31T14:47:20.549Z,2.67
2018-07-31T14:49:49.037Z,2.90
2018-07-31T14:52:17.825Z,2.80
2018-07-31T14:54:46.497Z,3.03
2018-07-31T14:57:15.217Z,3.37
2018-07-31T14:59:43.832Z,3.10
2018-07-31T15:02:24.641Z,3.07
2018-07-31T15:04:53.185Z,3.37
2018-07-31T15:07:21.445Z,2.83
2018-07-31T15:09:49.597Z,3.07
2018-07-31T15:12:17.727Z,3.37
2018-07-31T15:14:45.837Z,2.80
2018-07-31T15:17:32.281Z,3.20
2018-07-31T15:20:01.250Z,3.00
2018-07-31T15:22:29.876Z,3.57
2018-07-31T15:24:58.389Z,2.63
2018-07-31T15:27:26.885Z,2.90
2018-07-31T15:29:56.073Z,2.62
2018-07-31T15:32:24.529Z,2.80
2018-07-31T15:34:53.437Z,3.30
2018-07-31T15:37:21.557Z,3.10
2018-07-31T15:39:49.989Z,3.50
2018-07-31T15:42:18.457Z,3.37
2018-07-31T15:44:47.258Z,2.97
2018-07-31T15:47:16.221Z,2.80
2018-07-31T15:49:44.849Z,3.63
2018-07-31T15:52:13.657Z,3.53
2018-07-31T15:54:41.797Z,2.77
2018-07-31T15:57:10.129Z,3.23
2018-07-31T15:59:38.622Z,4.10
2018-07-31T16:02:07.653Z,4.50
2018-07-31T16:04:35.778Z,4.00
2018-07-31T16:07:04.558Z,3.12
2018-07-31T16:09:32.673Z,3.33
2018-07-31T16:12:01.437Z,3.17
2018-07-31T16:14:29.974Z,3.10
2018-07-31T16:16:58.496Z,3.30
2018-07-31T16:19:27.213Z,3.30
2018-07-31T16:21:56.145Z,3.03
2018-07-31T16:24:24.576Z,3.53
2018-07-31T16:26:53.105Z,3.40
2018-07-31T16:29:21.453Z,3.03
2018-07-31T16:31:50.209Z,2.50
2018-07-31T16:34:18.897Z,3.23
2018-07-31T16:36:47.321Z,3.17
2018-07-31T16:39:15.997Z,3.17
2018-07-31T16:41:44.441Z,3.10
2018-07-31T16:44:13.336Z,2.83
2018-07-31T16:46:42.265Z,3.27
2018-07-31T16:49:10.768Z,3.40
2018-07-31T16:51:39.617Z,3.50
2018-07-31T16:56:48.005Z,3.40
2018-07-31T16:59:16.390Z,3.67
2018-07-31T17:01:45.137Z,3.40
2018-07-31T17:04:13.785Z,3.13
2018-07-31T17:06:42.174Z,3.60
2018-07-31T17:09:10.525Z,4.05
2018-07-31T17:11:39.259Z,3.30
2018-07-31T17:17:02.132Z,3.87
2018-07-31T17:19:31.208Z,4.73
2018-07-31T17:21:59.633Z,4.07
2018-07-31T17:24:28.316Z,4.50
2018-07-31T17:26:56.437Z,4.87
2018-07-31T17:29:25.249Z,3.87
2018-07-31T17:31:54.156Z,4.20
2018-07-31T17:34:22.926Z,4.70
2018-07-31T17:36:52.089Z,4.60
2018-07-31T17:39:20.774Z,5.70
2018-07-31T17:41:49.010Z,4.90
2018-07-31T17:44:25.751Z,4.77
2018-07-31T17:46:54.477Z,4.23
2018-07-31T17:49:23.184Z,4.50
2018-07-31T17:51:51.792Z,4.47
2018-07-31T17:54:20.232Z,4.43
2018-07-31T17:56:48.657Z,5.80
2018-07-31T17:59:17.265Z,5.50
2018-07-31T18:01:45.689Z,4.43
2018-07-31T18:04:14.141Z,4.80
2018-07-31T18:06:42.266Z,4.57
2018-07-31T18:09:11.022Z,5.03
2018-07-31T18:11:40.281Z,4.73
2018-07-31T18:14:08.751Z,4.30
2018-07-31T18:16:37.841Z,3.97
2018-07-31T18:19:06.246Z,4.30
2018-07-31T18:21:34.731Z,4.10
2018-07-31T18:24:03.152Z,4.23
2018-07-31T18:26:31.681Z,3.93
2018-07-31T18:29:00.565Z,3.93
2018-07-31T18:31:29.521Z,4.10
2018-07-31T18:33:57.957Z,4.07
2018-07-31T18:36:26.513Z,4.17
2018-07-31T18:38:55.672Z,3.93
2018-07-31T18:41:24.042Z,4.37
2018-07-31T18:43:52.313Z,3.53
2018-07-31T18:46:20.982Z,3.27
2018-07-31T18:48:49.102Z,3.77
2018-07-31T18:51:17.533Z,3.73
2018-07-31T18:56:29.605Z,4.00
2018-07-31T18:58:58.248Z,3.77
2018-07-31T19:01:26.414Z,3.53
2018-07-31T19:03:56.929Z,3.75
2018-07-31T19:06:25.292Z,3.90
2018-07-31T19:08:53.977Z,3.50
2018-07-31T19:11:22.508Z,3.57
2018-07-31T19:13:51.457Z,3.40
2018-07-31T19:16:20.013Z,3.80
2018-07-31T19:18:48.469Z,4.53
2018-07-31T19:21:16.945Z,3.60
2018-07-31T19:23:45.201Z,3.80
2018-07-31T19:26:13.661Z,3.70
2018-07-31T19:29:00.513Z,3.90
2018-07-31T19:31:28.965Z,3.70
2018-07-31T19:33:57.707Z,3.13
2018-07-31T19:36:26.149Z,3.20
2018-07-31T19:38:54.832Z,3.20
2018-07-31T19:41:23.486Z,3.60
2018-07-31T19:43:52.036Z,2.90
2018-07-31T19:46:20.274Z,2.97
2018-07-31T19:48:48.861Z,3.00
2018-07-31T19:51:17.240Z,3.07
2018-07-31T19:53:45.930Z,2.80
2018-07-31T19:56:14.557Z,2.83
2018-07-31T19:58:43.304Z,2.90
2018-07-31T20:01:12.113Z,2.90
2018-07-31T20:03:40.618Z,3.07
2018-07-31T20:06:09.153Z,3.37
2018-07-31T20:08:37.618Z,3.00
2018-07-31T20:11:07.073Z,2.93
2018-07-31T20:13:35.296Z,2.77
2018-07-31T20:16:04.934Z,3.40
2018-07-31T20:18:33.621Z,2.73
2018-07-31T20:21:02.413Z,3.20
2018-07-31T20:23:30.684Z,2.90
2018-07-31T20:25:59.380Z,2.73
2018-07-31T20:28:27.667Z,2.60
2018-07-31T20:30:56.674Z,2.65
2018-07-31T20:33:25.125Z,2.50
2018-07-31T20:35:53.428Z,2.73
2018-07-31T20:38:21.877Z,2.20
2018-07-31T20:40:50.301Z,2.07
2018-07-31T20:43:19.008Z,1.90
2018-07-31T20:45:47.577Z,2.13
2018-07-31T20:48:15.685Z,2.40
2018-07-31T20:50:44.138Z,1.93
2018-07-31T20:53:12.950Z,1.72
2018-07-31T20:55:41.444Z,2.00
2018-07-31T20:58:09.577Z,2.30
2018-07-31T21:00:38.021Z,2.00
2018-07-31T21:03:07.061Z,2.42
2018-07-31T21:05:35.833Z,2.13
2018-07-31T21:08:03.965Z,2.03
2018-07-31T21:10:32.697Z,2.10
2018-07-31T21:13:00.817Z,2.30
2018-07-31T21:15:29.505Z,2.30
2018-07-31T21:17:58.292Z,2.47
2018-07-31T21:20:27.021Z,2.10
2018-07-31T21:22:56.473Z,2.25
2018-07-31T21:25:24.920Z,2.97
2018-07-31T21:27:53.381Z,2.45
2018-07-31T21:30:21.822Z,2.20
2018-07-31T21:32:49.921Z,2.83
2018-07-31T21:35:18.709Z,2.40
2018-07-31T21:37:47.174Z,2.33
2018-07-31T21:40:16.156Z,2.40
2018-07-31T21:42:59.192Z,2.50
2018-07-31T21:45:27.814Z,2.40
2018-07-31T21:47:57.192Z,2.63
2018-07-31T21:50:25.832Z,2.50
2018-07-31T21:55:58.833Z,2.60
2018-07-31T21:58:27.177Z,3.03
2018-07-31T22:01:01.973Z,2.77
2018-07-31T22:03:30.641Z,2.20
2018-07-31T22:05:58.757Z,2.53
2018-07-31T22:08:26.881Z,2.57
2018-07-31T22:10:55.721Z,2.43
2018-07-31T22:13:24.169Z,2.77
2018-07-31T22:15:52.583Z,2.43
2018-07-31T22:18:21.281Z,2.30
2018-07-31T22:20:50.053Z,2.70
2018-07-31T22:23:18.517Z,2.60
2018-07-31T22:25:49.134Z,3.10
2018-07-31T22:28:17.945Z,3.20
2018-07-31T22:30:46.657Z,2.90
2018-07-31T22:33:15.332Z,2.70
2018-07-31T22:35:44.053Z,3.10
2018-07-31T22:38:12.748Z,2.90
2018-07-31T22:40:41.252Z,2.83
2018-07-31T22:43:10.021Z,3.22
2018-07-31T22:45:38.697Z,2.90
2018-07-31T22:48:06.841Z,2.90
2018-07-31T22:50:35.380Z,3.77
2018-07-31T22:53:03.865Z,3.30
2018-07-31T22:55:31.969Z,3.00
2018-07-31T22:58:00.797Z,3.70
2018-07-31T23:00:29.170Z,3.10
2018-07-31T23:02:57.625Z,3.10
2018-07-31T23:05:26.085Z,3.10
2018-07-31T23:07:54.538Z,2.70
2018-07-31T23:10:22.849Z,3.10
2018-07-31T23:12:51.486Z,3.20
2018-07-31T23:15:19.704Z,2.60
2018-07-31T23:17:48.023Z,3.07
2018-07-31T23:20:16.723Z,2.60
2018-07-31T23:22:46.201Z,2.30
2018-07-31T23:25:14.953Z,2.70
2018-07-31T23:27:43.415Z,2.20
2018-07-31T23:30:11.899Z,2.17
2018-07-31T23:32:40.867Z,2.10
2018-07-31T23:35:09.000Z,2.00
2018-07-31T23:37:38.783Z,2.00
2018-07-31T23:40:18.134Z,1.80
2018-07-31T23:42:46.261Z,1.90
2018-07-31T23:45:14.861Z,2.52
2018-07-31T23:47:43.300Z,1.90
2018-07-31T23:50:11.911Z,1.82
2018-07-31T23:52:40.085Z,1.97
2018-07-31T23:55:08.797Z,2.52
2018-07-31T23:57:37.312Z,1.97
